Pagrindinis puslapis
METAR-TAF:

METAR-TAF

Oro uostai :

Fukuoka, Japonija

platuma: 33-35N, ilguma: 130-27E, Aukštis: 9 m

Dabartinis oras

Ataskaita buvo paskelbta 23 minutes, ne 02:30 UTC
Vėjas 13 kt iš Vakarų/Šiaurės Vakarų, svyruoja nuo Vakarų ir Šiaurės/Šiaurės Vakarų
Temperatūra 10°C
Drėgmė 53%
Slėgis 1021 hPa
Matomumas 10 km arba daugiau
Mažai debesys ne aukštis 3000 ft
Išsisklaidę debesys ne aukštis 3500 ft
Su prošvaistėmis ne aukštis 4000 ft

METAR: RJFF 200230Z 30013KT 260V340 9999 FEW030 SCT035 BKN040 10/01 Q1021 NOSIG RMK 1CU030 3CU035 5CU040 A3018

Laikas: 11:53 (02:53 UTC)

Prognozė

Ataskaita buvo paskelbta 3 valandos ir 47 minutes, ne 23:06 UTC
Prognozė galioja nuo 20 metu 00 UTC su 21 metu 06 UTC
Vėjas 11 kt iš Vakarų/Šiaurės Vakarų
Matomumas 10 km arba daugiau
Mažai debesys ne aukštis 2000 ft
Su prošvaistėmis ne aukštis 4000 ft

TAF: RJFF 192306Z 2000/2106 30011KT 9999 FEW020 BKN040

Orai ataskaitas ir orų prognozės (METAR, TAF).

turimą stotys yra geltonos ir raudonos taškus žemėlapyje.

Perkelti pele per norėdami pamatyti stoties vardą.

Tada spustelėkite, norėdami matyti oro stebėjimo ir prognozės.

Norėdami pakeisti žemėlapį: spustelėkite ant žalios mygtukų su juodo kryžiaus žemyn,; žalią mygtuką su brūkšneliu, jei norite nutolinti; arba žalių rodyklių gretimoms žemėlapius.


METAR-TAF: